Estación Meteorológica Peña el Pijo (Robertgarden) [ 11/20/17 01:25:09 CET ]

Fecha Hora Presion(HPa) Temp (°C) Humedad % Rocio (°C) Viento ( m/s) Direccion Lluvia 1Hora(mm) Lluvia 24H(mm) LLuvia Total(mm)
2017-Nov-19 01:01:56 1010.900 1.0 66 -4.7         1468.01
2017-Nov-19 02:01:45 1010.600 0.8 68 -4.5         1468.01
2017-Nov-19 03:01:41 1010.600 0.7 69 -4.4         1468.01
2017-Nov-19 04:08:07 1010.400 0.2 70 -4.6         1468.01
2017-Nov-19 05:01:53 1010.100 -0.1 72 -4.5         1468.01
2017-Nov-19 06:01:47 1010.300 -0.2 73 -4.5         1468.01
2017-Nov-19 07:01:43 1010.500 -0.9 73 -5.2         1468.01
2017-Nov-19 08:01:53 1011.000 -0.9 75 -4.8         1468.01
2017-Nov-19 09:01:43 1011.500 0.1 77 -3.4         1468.01
2017-Nov-19 10:01:48 1011.700 9.4 63 2.7         1468.01
2017-Nov-19 11:01:59 1011.600 15.8 41 2.5         1468.01
2017-Nov-19 12:01:51 1011.100 19.3 27 -0.3         1468.01
2017-Nov-19 13:01:46 1010.500 20.1 25 -0.8         1468.01
2017-Nov-19 14:01:52 1010.100 21.1 22 -1.6         1468.01
2017-Nov-19 15:01:44 1009.900 20.3 22 -2.3         1468.01
2017-Nov-19 16:01:52 1009.700 19.6 23 -2.3         1468.01
2017-Nov-19 17:01:47 1010.300 16.6 28 -2.1         1468.01
2017-Nov-19 18:01:31 1010.700 12.9 36 -1.9         1468.01
2017-Nov-19 19:01:38 1011.800 9.0 43 -3.0         1468.01
2017-Nov-19 20:01:59 1012.400 5.5 49 -4.3         1468.01
2017-Nov-19 21:01:40 1013.100 4.1 54 -4.4         1468.01
2017-Nov-19 22:01:56 1013.500 2.5 58 -4.9         1468.01
2017-Nov-19 23:01:47 1013.500 2.6 61 -3.9         1468.01

Temperatura Máxima:21°    Temperatura Mínima:
Presión Máxima:1013.500 Hpa    Presión Mínima:1009.700 Hpa


Volver